Rapelje, Montana
Current Conditions -  °F | °C
As of 10:53 PM on Thursday 18 Dec 2014 (Local Time) from KBIL Reporting Station
Scattered Clouds Scattered Clouds  
Wind Chill: 19°   Ceiling: Unl
Heat Index: 30°   Visibility: 10mi
Dew Point: 19°   Wind: 16mph
Humidity: 64%   Direction: 230°SW
Pressure: 29.98"   Gusts: NA
Location:  45.97°N, 109.26°W
Report Text: KBIL 190553Z 23014KT 10SM SCT150 M01/M07 A2998 RMK AO2 SLP183 T10111072 10022 21011 53002
Loading
Personal Weather Stations






























Interactive Weather Map New forecast layout! Learn more

10-Day Weather Forecast

Advertisements
Track Severe Weather on mobile